Terminal Aerodrome Forecast
Issued by NWS

Home | Current Version | Previous Version | Text Only | Print | Product List | Glossary On
Versions: 1 2 3 4 5 6 7 8 9 10 11 12 13 14 15 16 17 18 19 20 21 22 23 24 25 26 27
000
FTUS44 KJAN 050534
TAFGTR
TAF
KGTR 050534Z 0506/0606 20004KT P6SM BKN010 BKN250
     FM051300 25005KT P6SM SCT015 BKN025 BKN150
     FM051500 26007KT P6SM FEW020 SCT040 SCT150
     FM060100 18004KT P6SM FEW030 SCT150=

USA.gov is the U.S. government's official web portal to all federal, state and local government web resources and services.